CheckWX is a tool to help pilots better visualize weather data.  It is not intended as a substitute for an official pre-flight weather briefing.

05:10:10 UTC

KCCB METAR
Cable Airport
Upland, California, USA
Current

35 mins ago

KCCB 240435Z AUTO 28006KT 10SM CLR 10/01 A3024 RMK AO2
Observed
Feb-24 @ 04:35 UTC
Wind
  • 280° at 6 KTS
Visibility
10 SM
Flight Rules
VFR
Cloud Levels
  • Clear skies
Temperature
10°C / 50°F
Dewpoint
C / 34°F
Humidity
54%
Altimeter
30.24" Hg
Pressure
1024.02 hPa
Previous

55 mins ago

KCCB 240415Z AUTO 28007KT 10SM CLR 10/01 A3024 RMK AO2
Observed
Feb-24 @ 04:15 UTC
Wind
  • 280° at 7 KTS
Visibility
10 SM
Flight Rules
VFR
Cloud Levels
  • Clear skies
Temperature
10°C / 50°F
Dewpoint
C / 34°F
Humidity
54%
Altimeter
30.24" Hg
Pressure
1024.02 hPa
Previous

1 hour ago

KCCB 240355Z AUTO 27007KT 10SM CLR 10/01 A3024 RMK AO2
Observed
Feb-24 @ 03:55 UTC
Wind
  • 270° at 7 KTS
Visibility
10 SM
Flight Rules
VFR
Cloud Levels
  • Clear skies
Temperature
10°C / 50°F
Dewpoint
C / 34°F
Humidity
54%
Altimeter
30.24" Hg
Pressure
1024.02 hPa